West Carrollton, Ohio
Current Conditions -  °F | °C
As of 3:53 PM on Thursday 27 Nov 2014 (Local Time) from KMGY Reporting Station
Overcast Overcast  
Wind Chill: -4°   Ceiling: 2100
Heat Index:   Visibility: 9mi
Dew Point: -4°   Wind: 7mph
Humidity: 75%   Direction: 280°W
Pressure: 30.26"   Gusts: NA
Location:  39.664°N, 84.2415°W
Report Text: KMGY 272053Z AUTO 28006KT 9SM BKN021 OVC029 00/M04 A3026 RMK AO2 SNE39 SLP258 P0000 60000 T00001039 53008
Loading
Personal Weather Stations






























Interactive Weather Map New forecast layout! Learn more

10-Day Weather Forecast

Advertisements
Track Severe Weather on mobile